sensor_id;sensor_type;location;lat;lon;timestamp;temperature;humidity
11991;DHT22;6055;52.522;13.446;2023-04-03T00:00:56;2.90;99.90
11991;DHT22;6055;52.522;13.446;2023-04-03T00:03:22;2.90;99.90
11991;DHT22;6055;52.522;13.446;2023-04-03T00:05:48;2.90;99.90
11991;DHT22;6055;52.522;13.446;2023-04-03T00:08:14;2.80;99.90
11991;DHT22;6055;52.522;13.446;2023-04-03T00:10:40;2.80;99.90
11991;DHT22;6055;52.522;13.446;2023-04-03T00:13:06;2.90;99.90
11991;DHT22;6055;52.522;13.446;2023-04-03T00:15:32;2.80;99.90
11991;DHT22;6055;52.522;13.446;2023-04-03T00:17:57;2.80;99.90
11991;DHT22;6055;52.522;13.446;2023-04-03T00:20:23;2.80;99.90
11991;DHT22;6055;52.522;13.446;2023-04-03T00:22:48;2.80;99.90
11991;DHT22;6055;52.522;13.446;2023-04-03T00:25:14;2.80;99.90
11991;DHT22;6055;52.522;13.446;2023-04-03T00:27:40;2.70;99.90
11991;DHT22;6055;52.522;13.446;2023-04-03T00:30:07;2.70;99.90
11991;DHT22;6055;52.522;13.446;2023-04-03T00:32:34;2.60;99.90
11991;DHT22;6055;52.522;13.446;2023-04-03T00:34:59;2.70;99.90
11991;DHT22;6055;52.522;13.446;2023-04-03T00:37:25;2.70;99.90
11991;DHT22;6055;52.522;13.446;2023-04-03T00:39:50;2.70;99.90
11991;DHT22;6055;52.522;13.446;2023-04-03T00:42:16;2.70;99.90
11991;DHT22;6055;52.522;13.446;2023-04-03T00:47:09;2.80;99.90
11991;DHT22;6055;52.522;13.446;2023-04-03T00:49:37;2.70;99.90
11991;DHT22;6055;52.522;13.446;2023-04-03T00:52:04;2.70;99.90
11991;DHT22;6055;52.522;13.446;2023-04-03T00:54:31;2.60;99.90
11991;DHT22;6055;52.522;13.446;2023-04-03T00:56:57;2.70;99.90
11991;DHT22;6055;52.522;13.446;2023-04-03T00:59:31;2.60;99.90
11991;DHT22;6055;52.522;13.446;2023-04-03T01:01:59;2.70;99.90
11991;DHT22;6055;52.522;13.446;2023-04-03T01:04:34;2.60;99.90
11991;DHT22;6055;52.522;13.446;2023-04-03T01:07:04;2.60;99.90
11991;DHT22;6055;52.522;13.446;2023-04-03T01:09:31;2.60;99.90
11991;DHT22;6055;52.522;13.446;2023-04-03T01:12:31;2.60;99.90
11991;DHT22;6055;52.522;13.446;2023-04-03T01:15:04;2.50;99.90
11991;DHT22;6055;52.522;13.446;2023-04-03T01:17:35;2.50;99.90
11991;DHT22;6055;52.522;13.446;2023-04-03T01:20:24;2.50;99.90
11991;DHT22;6055;52.522;13.446;2023-04-03T01:25:45;2.50;99.90
11991;DHT22;6055;52.522;13.446;2023-04-03T01:28:14;2.40;99.90
11991;DHT22;6055;52.522;13.446;2023-04-03T01:30:52;2.40;99.90
11991;DHT22;6055;52.522;13.446;2023-04-03T01:33:19;2.50;99.90
11991;DHT22;6055;52.522;13.446;2023-04-03T01:35:45;2.50;99.90
11991;DHT22;6055;52.522;13.446;2023-04-03T01:38:10;2.50;99.90
11991;DHT22;6055;52.522;13.446;2023-04-03T01:40:36;2.40;99.90
11991;DHT22;6055;52.522;13.446;2023-04-03T01:43:02;2.40;99.90
11991;DHT22;6055;52.522;13.446;2023-04-03T01:45:27;2.40;99.90
11991;DHT22;6055;52.522;13.446;2023-04-03T01:47:52;2.40;99.90
11991;DHT22;6055;52.522;13.446;2023-04-03T01:50:18;2.40;99.90
11991;DHT22;6055;52.522;13.446;2023-04-03T01:52:43;2.30;99.90
11991;DHT22;6055;52.522;13.446;2023-04-03T01:55:09;2.30;99.90
11991;DHT22;6055;52.522;13.446;2023-04-03T01:57:35;2.30;99.90
11991;DHT22;6055;52.522;13.446;2023-04-03T02:00:00;2.20;99.90
11991;DHT22;6055;52.522;13.446;2023-04-03T02:02:26;2.20;99.90
11991;DHT22;6055;52.522;13.446;2023-04-03T02:04:51;2.20;99.90
11991;DHT22;6055;52.522;13.446;2023-04-03T02:07:17;2.10;99.90
11991;DHT22;6055;52.522;13.446;2023-04-03T02:09:42;2.10;99.90
11991;DHT22;6055;52.522;13.446;2023-04-03T02:12:08;2.00;99.90
11991;DHT22;6055;52.522;13.446;2023-04-03T02:14:33;2.00;99.90
11991;DHT22;6055;52.522;13.446;2023-04-03T02:17:01;2.00;99.90
11991;DHT22;6055;52.522;13.446;2023-04-03T02:19:30;2.10;99.90
11991;DHT22;6055;52.522;13.446;2023-04-03T02:21:56;2.00;99.90
11991;DHT22;6055;52.522;13.446;2023-04-03T02:24:21;2.00;99.90
11991;DHT22;6055;52.522;13.446;2023-04-03T02:26:47;2.00;99.90
11991;DHT22;6055;52.522;13.446;2023-04-03T02:29:12;2.00;99.90
11991;DHT22;6055;52.522;13.446;2023-04-03T02:31:38;1.90;99.90
11991;DHT22;6055;52.522;13.446;2023-04-03T02:34:03;1.90;99.90
11991;DHT22;6055;52.522;13.446;2023-04-03T02:36:28;2.00;99.90
11991;DHT22;6055;52.522;13.446;2023-04-03T02:38:54;1.90;99.90
11991;DHT22;6055;52.522;13.446;2023-04-03T02:41:19;1.90;99.90
11991;DHT22;6055;52.522;13.446;2023-04-03T02:43:46;2.00;99.90
11991;DHT22;6055;52.522;13.446;2023-04-03T02:46:11;2.00;99.90
11991;DHT22;6055;52.522;13.446;2023-04-03T02:48:39;1.90;99.90
11991;DHT22;6055;52.522;13.446;2023-04-03T02:51:05;1.90;99.90
11991;DHT22;6055;52.522;13.446;2023-04-03T02:53:30;1.90;99.90
11991;DHT22;6055;52.522;13.446;2023-04-03T02:55:55;1.90;99.90
11991;DHT22;6055;52.522;13.446;2023-04-03T02:58:21;1.90;99.90
11991;DHT22;6055;52.522;13.446;2023-04-03T03:00:46;1.80;99.90
11991;DHT22;6055;52.522;13.446;2023-04-03T03:03:12;1.80;99.90
11991;DHT22;6055;52.522;13.446;2023-04-03T03:05:39;1.80;99.90
11991;DHT22;6055;52.522;13.446;2023-04-03T03:08:04;1.70;99.90
11991;DHT22;6055;52.522;13.446;2023-04-03T03:10:30;1.70;99.90
11991;DHT22;6055;52.522;13.446;2023-04-03T03:12:56;1.70;99.90
11991;DHT22;6055;52.522;13.446;2023-04-03T03:15:21;1.60;99.90
11991;DHT22;6055;52.522;13.446;2023-04-03T03:17:47;1.70;99.90
11991;DHT22;6055;52.522;13.446;2023-04-03T03:20:12;1.60;99.90
11991;DHT22;6055;52.522;13.446;2023-04-03T03:22:40;1.60;99.90
11991;DHT22;6055;52.522;13.446;2023-04-03T03:25:06;1.60;99.90
11991;DHT22;6055;52.522;13.446;2023-04-03T03:27:32;1.60;99.90
11991;DHT22;6055;52.522;13.446;2023-04-03T03:29:57;1.60;99.90
11991;DHT22;6055;52.522;13.446;2023-04-03T03:32:22;1.60;99.90
11991;DHT22;6055;52.522;13.446;2023-04-03T03:34:48;1.60;99.90
11991;DHT22;6055;52.522;13.446;2023-04-03T03:37:13;1.60;99.90
11991;DHT22;6055;52.522;13.446;2023-04-03T03:39:39;1.50;99.90
11991;DHT22;6055;52.522;13.446;2023-04-03T03:42:04;1.50;99.90
11991;DHT22;6055;52.522;13.446;2023-04-03T03:44:30;1.40;99.90
11991;DHT22;6055;52.522;13.446;2023-04-03T03:46:55;1.40;99.90
11991;DHT22;6055;52.522;13.446;2023-04-03T03:49:21;1.40;99.90
11991;DHT22;6055;52.522;13.446;2023-04-03T03:51:47;1.50;99.90
11991;DHT22;6055;52.522;13.446;2023-04-03T03:54:13;1.40;99.90
11991;DHT22;6055;52.522;13.446;2023-04-03T03:56:38;1.50;99.90
11991;DHT22;6055;52.522;13.446;2023-04-03T03:59:04;1.40;99.90
11991;DHT22;6055;52.522;13.446;2023-04-03T04:01:30;1.30;99.90
11991;DHT22;6055;52.522;13.446;2023-04-03T04:03:55;1.30;99.90
11991;DHT22;6055;52.522;13.446;2023-04-03T04:06:21;1.30;99.90
11991;DHT22;6055;52.522;13.446;2023-04-03T04:08:46;1.30;99.90
11991;DHT22;6055;52.522;13.446;2023-04-03T04:11:12;1.40;99.90
11991;DHT22;6055;52.522;13.446;2023-04-03T04:13:38;1.30;99.90
11991;DHT22;6055;52.522;13.446;2023-04-03T04:16:03;1.30;99.90
11991;DHT22;6055;52.522;13.446;2023-04-03T04:18:29;1.30;99.90
11991;DHT22;6055;52.522;13.446;2023-04-03T04:20:54;1.20;99.90
11991;DHT22;6055;52.522;13.446;2023-04-03T04:23:20;1.20;99.90
11991;DHT22;6055;52.522;13.446;2023-04-03T04:25:46;1.30;99.90
11991;DHT22;6055;52.522;13.446;2023-04-03T04:28:12;1.30;99.90
11991;DHT22;6055;52.522;13.446;2023-04-03T04:30:38;1.30;99.90
11991;DHT22;6055;52.522;13.446;2023-04-03T04:33:03;1.30;99.90
11991;DHT22;6055;52.522;13.446;2023-04-03T04:35:29;1.30;99.90
11991;DHT22;6055;52.522;13.446;2023-04-03T04:37:55;1.20;99.90
11991;DHT22;6055;52.522;13.446;2023-04-03T04:40:20;1.20;99.90
11991;DHT22;6055;52.522;13.446;2023-04-03T04:42:46;1.20;99.90
11991;DHT22;6055;52.522;13.446;2023-04-03T04:45:12;1.20;99.90
11991;DHT22;6055;52.522;13.446;2023-04-03T04:47:37;1.20;99.90
11991;DHT22;6055;52.522;13.446;2023-04-03T04:50:03;1.20;99.90
11991;DHT22;6055;52.522;13.446;2023-04-03T04:52:29;1.20;99.90
11991;DHT22;6055;52.522;13.446;2023-04-03T04:54:54;1.20;99.90
11991;DHT22;6055;52.522;13.446;2023-04-03T04:57:20;1.20;99.90
11991;DHT22;6055;52.522;13.446;2023-04-03T04:59:45;1.20;99.90
11991;DHT22;6055;52.522;13.446;2023-04-03T05:02:11;1.20;99.90
11991;DHT22;6055;52.522;13.446;2023-04-03T05:04:36;1.30;99.90
11991;DHT22;6055;52.522;13.446;2023-04-03T05:07:02;1.20;99.90
11991;DHT22;6055;52.522;13.446;2023-04-03T05:09:27;1.20;99.90
11991;DHT22;6055;52.522;13.446;2023-04-03T05:11:53;1.20;99.90
11991;DHT22;6055;52.522;13.446;2023-04-03T05:14:19;1.20;99.90
11991;DHT22;6055;52.522;13.446;2023-04-03T05:16:44;1.20;99.90
11991;DHT22;6055;52.522;13.446;2023-04-03T05:19:10;1.20;99.90
11991;DHT22;6055;52.522;13.446;2023-04-03T05:21:35;1.20;99.90
11991;DHT22;6055;52.522;13.446;2023-04-03T05:24:01;1.30;99.90
11991;DHT22;6055;52.522;13.446;2023-04-03T05:26:29;1.30;99.90
11991;DHT22;6055;52.522;13.446;2023-04-03T05:28:55;1.30;99.90
11991;DHT22;6055;52.522;13.446;2023-04-03T05:31:20;1.30;99.90
11991;DHT22;6055;52.522;13.446;2023-04-03T05:33:46;1.30;99.90
11991;DHT22;6055;52.522;13.446;2023-04-03T05:36:12;1.40;99.90
11991;DHT22;6055;52.522;13.446;2023-04-03T05:38:38;1.40;99.90
11991;DHT22;6055;52.522;13.446;2023-04-03T05:41:04;1.40;99.90
11991;DHT22;6055;52.522;13.446;2023-04-03T05:43:29;1.30;99.90
11991;DHT22;6055;52.522;13.446;2023-04-03T05:45:55;1.40;99.90
11991;DHT22;6055;52.522;13.446;2023-04-03T05:48:21;1.50;99.90
11991;DHT22;6055;52.522;13.446;2023-04-03T05:50:46;1.50;99.90
11991;DHT22;6055;52.522;13.446;2023-04-03T05:53:22;1.50;99.90
11991;DHT22;6055;52.522;13.446;2023-04-03T05:55:49;1.50;99.90
11991;DHT22;6055;52.522;13.446;2023-04-03T05:58:15;1.60;99.90
11991;DHT22;6055;52.522;13.446;2023-04-03T06:00:41;1.60;99.90
11991;DHT22;6055;52.522;13.446;2023-04-03T06:03:06;1.60;99.90
11991;DHT22;6055;52.522;13.446;2023-04-03T06:05:32;1.60;99.90
11991;DHT22;6055;52.522;13.446;2023-04-03T06:07:57;1.70;99.90
11991;DHT22;6055;52.522;13.446;2023-04-03T06:10:23;1.70;99.90
11991;DHT22;6055;52.522;13.446;2023-04-03T06:12:49;1.70;99.90
11991;DHT22;6055;52.522;13.446;2023-04-03T06:15:15;1.80;99.90
11991;DHT22;6055;52.522;13.446;2023-04-03T06:17:42;1.80;99.90
11991;DHT22;6055;52.522;13.446;2023-04-03T06:20:09;1.90;99.90
11991;DHT22;6055;52.522;13.446;2023-04-03T06:22:35;1.90;99.90
11991;DHT22;6055;52.522;13.446;2023-04-03T06:25:00;1.90;99.90
11991;DHT22;6055;52.522;13.446;2023-04-03T06:27:26;2.10;99.90
11991;DHT22;6055;52.522;13.446;2023-04-03T06:29:51;2.10;99.90
11991;DHT22;6055;52.522;13.446;2023-04-03T06:32:17;2.10;99.90
11991;DHT22;6055;52.522;13.446;2023-04-03T06:34:42;2.20;99.90
11991;DHT22;6055;52.522;13.446;2023-04-03T06:37:16;2.20;99.90
11991;DHT22;6055;52.522;13.446;2023-04-03T06:39:42;2.30;99.90
11991;DHT22;6055;52.522;13.446;2023-04-03T06:42:08;2.30;99.90
11991;DHT22;6055;52.522;13.446;2023-04-03T06:44:33;2.40;99.90
11991;DHT22;6055;52.522;13.446;2023-04-03T06:46:59;2.40;99.90
11991;DHT22;6055;52.522;13.446;2023-04-03T06:49:25;2.40;99.90
11991;DHT22;6055;52.522;13.446;2023-04-03T06:51:51;2.50;99.90
11991;DHT22;6055;52.522;13.446;2023-04-03T06:54:17;2.50;99.90
11991;DHT22;6055;52.522;13.446;2023-04-03T06:56:43;2.50;99.90
11991;DHT22;6055;52.522;13.446;2023-04-03T06:59:10;2.60;99.90
11991;DHT22;6055;52.522;13.446;2023-04-03T07:01:36;2.60;99.90
11991;DHT22;6055;52.522;13.446;2023-04-03T07:04:01;2.70;99.90
11991;DHT22;6055;52.522;13.446;2023-04-03T07:06:27;2.80;99.90
11991;DHT22;6055;52.522;13.446;2023-04-03T07:08:52;2.80;99.90
11991;DHT22;6055;52.522;13.446;2023-04-03T07:11:18;2.90;99.90
11991;DHT22;6055;52.522;13.446;2023-04-03T07:13:44;2.90;99.90
11991;DHT22;6055;52.522;13.446;2023-04-03T07:16:09;2.90;99.90
11991;DHT22;6055;52.522;13.446;2023-04-03T07:18:35;2.90;99.90
11991;DHT22;6055;52.522;13.446;2023-04-03T07:21:01;3.00;99.90
11991;DHT22;6055;52.522;13.446;2023-04-03T07:23:26;3.10;99.90
11991;DHT22;6055;52.522;13.446;2023-04-03T07:25:53;3.20;99.90
11991;DHT22;6055;52.522;13.446;2023-04-03T07:28:20;3.30;99.90
11991;DHT22;6055;52.522;13.446;2023-04-03T07:30:51;3.50;99.90
11991;DHT22;6055;52.522;13.446;2023-04-03T07:33:18;3.70;99.90
11991;DHT22;6055;52.522;13.446;2023-04-03T07:35:44;3.70;99.90
11991;DHT22;6055;52.522;13.446;2023-04-03T07:38:11;3.70;99.90
11991;DHT22;6055;52.522;13.446;2023-04-03T07:40:37;3.60;99.90
11991;DHT22;6055;52.522;13.446;2023-04-03T07:43:04;3.60;99.90
11991;DHT22;6055;52.522;13.446;2023-04-03T07:45:30;3.60;99.90
11991;DHT22;6055;52.522;13.446;2023-04-03T07:47:56;3.60;99.90
11991;DHT22;6055;52.522;13.446;2023-04-03T07:50:21;3.70;99.90
11991;DHT22;6055;52.522;13.446;2023-04-03T07:52:47;3.80;99.90
11991;DHT22;6055;52.522;13.446;2023-04-03T07:55:12;3.90;99.50
11991;DHT22;6055;52.522;13.446;2023-04-03T07:57:38;3.90;99.50
11991;DHT22;6055;52.522;13.446;2023-04-03T08:00:04;4.00;99.30
11991;DHT22;6055;52.522;13.446;2023-04-03T08:02:30;4.10;99.30
11991;DHT22;6055;52.522;13.446;2023-04-03T08:04:57;4.10;99.70
11991;DHT22;6055;52.522;13.446;2023-04-03T08:07:23;4.30;99.30
11991;DHT22;6055;52.522;13.446;2023-04-03T08:09:48;4.50;98.70
11991;DHT22;6055;52.522;13.446;2023-04-03T08:12:14;4.70;98.70
11991;DHT22;6055;52.522;13.446;2023-04-03T08:14:40;4.80;98.70
11991;DHT22;6055;52.522;13.446;2023-04-03T08:17:06;4.90;98.50
11991;DHT22;6055;52.522;13.446;2023-04-03T08:19:34;4.90;98.10
11991;DHT22;6055;52.522;13.446;2023-04-03T08:22:00;4.80;97.70
11991;DHT22;6055;52.522;13.446;2023-04-03T08:24:28;4.80;97.90
11991;DHT22;6055;52.522;13.446;2023-04-03T08:26:54;4.80;97.80
11991;DHT22;6055;52.522;13.446;2023-04-03T08:29:19;4.60;97.70
11991;DHT22;6055;52.522;13.446;2023-04-03T08:31:46;4.70;97.70
11991;DHT22;6055;52.522;13.446;2023-04-03T08:34:12;4.70;97.60
11991;DHT22;6055;52.522;13.446;2023-04-03T08:36:38;4.80;97.40
11991;DHT22;6055;52.522;13.446;2023-04-03T08:39:04;4.80;97.60
11991;DHT22;6055;52.522;13.446;2023-04-03T08:41:41;4.80;97.20
11991;DHT22;6055;52.522;13.446;2023-04-03T08:44:24;4.80;96.80
11991;DHT22;6055;52.522;13.446;2023-04-03T08:47:11;4.80;96.40
11991;DHT22;6055;52.522;13.446;2023-04-03T08:49:51;4.60;96.80
11991;DHT22;6055;52.522;13.446;2023-04-03T08:52:22;4.70;96.70
11991;DHT22;6055;52.522;13.446;2023-04-03T08:54:53;4.70;96.70
11991;DHT22;6055;52.522;13.446;2023-04-03T08:57:34;4.70;96.60
11991;DHT22;6055;52.522;13.446;2023-04-03T09:00:05;4.80;96.50
11991;DHT22;6055;52.522;13.446;2023-04-03T09:02:53;4.90;96.50
11991;DHT22;6055;52.522;13.446;2023-04-03T09:05:24;5.10;96.20
11991;DHT22;6055;52.522;13.446;2023-04-03T09:08:04;5.20;96.10
11991;DHT22;6055;52.522;13.446;2023-04-03T09:10:35;5.30;94.30
11991;DHT22;6055;52.522;13.446;2023-04-03T09:13:08;5.30;94.60
11991;DHT22;6055;52.522;13.446;2023-04-03T09:15:35;5.50;93.60
11991;DHT22;6055;52.522;13.446;2023-04-03T09:18:20;5.70;93.30
11991;DHT22;6055;52.522;13.446;2023-04-03T09:23:51;5.90;92.40
11991;DHT22;6055;52.522;13.446;2023-04-03T09:26:22;5.90;92.40
11991;DHT22;6055;52.522;13.446;2023-04-03T09:28:48;5.90;92.40
11991;DHT22;6055;52.522;13.446;2023-04-03T09:31:21;6.00;92.30
11991;DHT22;6055;52.522;13.446;2023-04-03T09:33:50;6.00;91.60
11991;DHT22;6055;52.522;13.446;2023-04-03T09:36:37;6.20;91.70
11991;DHT22;6055;52.522;13.446;2023-04-03T09:39:05;6.40;91.20
11991;DHT22;6055;52.522;13.446;2023-04-03T09:41:30;6.70;91.00
11991;DHT22;6055;52.522;13.446;2023-04-03T09:43:58;6.90;90.70
11991;DHT22;6055;52.522;13.446;2023-04-03T09:46:32;6.90;90.30
11991;DHT22;6055;52.522;13.446;2023-04-03T09:49:04;6.80;90.30
11991;DHT22;6055;52.522;13.446;2023-04-03T09:51:31;6.70;90.20
11991;DHT22;6055;52.522;13.446;2023-04-03T09:53:57;6.60;90.00
11991;DHT22;6055;52.522;13.446;2023-04-03T09:56:30;6.50;90.30
11991;DHT22;6055;52.522;13.446;2023-04-03T10:04:12;6.10;91.30
11991;DHT22;6055;52.522;13.446;2023-04-03T10:09:29;6.00;91.70
11991;DHT22;6055;52.522;13.446;2023-04-03T10:12:09;6.10;91.90
11991;DHT22;6055;52.522;13.446;2023-04-03T10:15:00;6.20;91.70
11991;DHT22;6055;52.522;13.446;2023-04-03T10:17:44;6.20;91.50
11991;DHT22;6055;52.522;13.446;2023-04-03T10:20:35;6.40;91.30
11991;DHT22;6055;52.522;13.446;2023-04-03T10:23:15;6.50;91.40
11991;DHT22;6055;52.522;13.446;2023-04-03T10:25:55;6.60;91.10
11991;DHT22;6055;52.522;13.446;2023-04-03T10:31:31;6.90;90.30
11991;DHT22;6055;52.522;13.446;2023-04-03T10:34:25;6.70;89.60
11991;DHT22;6055;52.522;13.446;2023-04-03T10:39:57;6.70;88.40
11991;DHT22;6055;52.522;13.446;2023-04-03T10:45:10;6.90;89.00
11991;DHT22;6055;52.522;13.446;2023-04-03T10:48:03;6.90;88.00
11991;DHT22;6055;52.522;13.446;2023-04-03T10:53:16;7.10;89.10
11991;DHT22;6055;52.522;13.446;2023-04-03T10:55:51;7.30;89.40
11991;DHT22;6055;52.522;13.446;2023-04-03T10:58:26;7.50;88.60
11991;DHT22;6055;52.522;13.446;2023-04-03T11:00:55;7.70;88.50
11991;DHT22;6055;52.522;13.446;2023-04-03T11:03:30;7.80;88.40
11991;DHT22;6055;52.522;13.446;2023-04-03T11:06:00;7.70;87.40
11991;DHT22;6055;52.522;13.446;2023-04-03T11:08:36;7.50;87.60
11991;DHT22;6055;52.522;13.446;2023-04-03T11:11:29;7.50;88.50
11991;DHT22;6055;52.522;13.446;2023-04-03T11:17:26;7.30;88.00
11991;DHT22;6055;52.522;13.446;2023-04-03T11:30:09;7.50;89.80
11991;DHT22;6055;52.522;13.446;2023-04-03T11:33:05;7.50;90.00
11991;DHT22;6055;52.522;13.446;2023-04-03T11:35:36;7.60;89.70
11991;DHT22;6055;52.522;13.446;2023-04-03T11:38:04;7.60;89.60
11991;DHT22;6055;52.522;13.446;2023-04-03T11:40:33;7.40;89.40
11991;DHT22;6055;52.522;13.446;2023-04-03T11:45:50;7.40;90.10
11991;DHT22;6055;52.522;13.446;2023-04-03T11:50:48;7.70;90.30
11991;DHT22;6055;52.522;13.446;2023-04-03T11:58:27;8.00;89.60
11991;DHT22;6055;52.522;13.446;2023-04-03T12:01:05;7.80;89.00
11991;DHT22;6055;52.522;13.446;2023-04-03T12:13:37;7.40;89.30
11991;DHT22;6055;52.522;13.446;2023-04-03T12:16:05;7.30;90.00
11991;DHT22;6055;52.522;13.446;2023-04-03T12:32:35;7.30;90.20
11991;DHT22;6055;52.522;13.446;2023-04-03T12:35:28;7.10;90.20
11991;DHT22;6055;52.522;13.446;2023-04-03T12:48:53;8.10;87.10
11991;DHT22;6055;52.522;13.446;2023-04-03T12:51:40;7.80;86.70
11991;DHT22;6055;52.522;13.446;2023-04-03T12:56:38;7.70;87.40
11991;DHT22;6055;52.522;13.446;2023-04-03T12:59:21;7.70;87.90
11991;DHT22;6055;52.522;13.446;2023-04-03T13:01:59;7.80;87.00
11991;DHT22;6055;52.522;13.446;2023-04-03T13:04:26;7.80;87.60
11991;DHT22;6055;52.522;13.446;2023-04-03T13:06:52;7.70;88.10
11991;DHT22;6055;52.522;13.446;2023-04-03T13:09:24;7.70;88.00
11991;DHT22;6055;52.522;13.446;2023-04-03T13:14:23;7.50;88.90
11991;DHT22;6055;52.522;13.446;2023-04-03T13:17:12;7.70;88.80
11991;DHT22;6055;52.522;13.446;2023-04-03T13:19:40;7.70;88.30
11991;DHT22;6055;52.522;13.446;2023-04-03T13:22:28;7.50;88.50
11991;DHT22;6055;52.522;13.446;2023-04-03T13:24:58;7.40;88.40
11991;DHT22;6055;52.522;13.446;2023-04-03T13:27:25;7.40;89.60
11991;DHT22;6055;52.522;13.446;2023-04-03T13:29:53;7.40;88.80
11991;DHT22;6055;52.522;13.446;2023-04-03T13:32:22;7.40;88.40
11991;DHT22;6055;52.522;13.446;2023-04-03T13:34:49;7.50;89.70
11991;DHT22;6055;52.522;13.446;2023-04-03T13:37:30;7.50;88.70
11991;DHT22;6055;52.522;13.446;2023-04-03T13:42:35;7.30;89.30
11991;DHT22;6055;52.522;13.446;2023-04-03T13:45:20;7.10;89.30
11991;DHT22;6055;52.522;13.446;2023-04-03T13:47:50;7.00;89.40
11991;DHT22;6055;52.522;13.446;2023-04-03T13:50:20;7.00;90.40
11991;DHT22;6055;52.522;13.446;2023-04-03T13:52:53;7.00;90.30
11991;DHT22;6055;52.522;13.446;2023-04-03T13:57:58;7.00;90.70
11991;DHT22;6055;52.522;13.446;2023-04-03T14:00:39;7.00;91.00
11991;DHT22;6055;52.522;13.446;2023-04-03T14:03:18;6.90;90.70
11991;DHT22;6055;52.522;13.446;2023-04-03T14:05:45;7.00;90.90
11991;DHT22;6055;52.522;13.446;2023-04-03T14:08:11;7.00;90.80
11991;DHT22;6055;52.522;13.446;2023-04-03T14:10:37;7.10;90.70
11991;DHT22;6055;52.522;13.446;2023-04-03T14:13:03;7.10;90.80
11991;DHT22;6055;52.522;13.446;2023-04-03T14:15:30;7.10;90.40
11991;DHT22;6055;52.522;13.446;2023-04-03T14:17:57;7.20;90.50
11991;DHT22;6055;52.522;13.446;2023-04-03T14:20:25;7.10;90.40
11991;DHT22;6055;52.522;13.446;2023-04-03T14:22:51;7.20;90.60
11991;DHT22;6055;52.522;13.446;2023-04-03T14:25:18;7.30;90.30
11991;DHT22;6055;52.522;13.446;2023-04-03T14:27:47;7.50;90.60
11991;DHT22;6055;52.522;13.446;2023-04-03T14:30:21;7.60;90.40
11991;DHT22;6055;52.522;13.446;2023-04-03T14:32:47;8.00;90.40
11991;DHT22;6055;52.522;13.446;2023-04-03T14:35:15;8.40;90.00
11991;DHT22;6055;52.522;13.446;2023-04-03T14:37:41;8.30;88.20
11991;DHT22;6055;52.522;13.446;2023-04-03T14:40:07;8.30;89.00
11991;DHT22;6055;52.522;13.446;2023-04-03T14:42:35;8.10;89.00
11991;DHT22;6055;52.522;13.446;2023-04-03T14:45:05;8.00;89.70
11991;DHT22;6055;52.522;13.446;2023-04-03T14:47:31;7.90;90.00
11991;DHT22;6055;52.522;13.446;2023-04-03T14:50:01;7.60;90.00
11991;DHT22;6055;52.522;13.446;2023-04-03T14:52:33;7.40;90.70
11991;DHT22;6055;52.522;13.446;2023-04-03T14:55:00;7.10;90.70
11991;DHT22;6055;52.522;13.446;2023-04-03T14:57:27;6.90;91.20
11991;DHT22;6055;52.522;13.446;2023-04-03T14:59:54;6.80;91.60
11991;DHT22;6055;52.522;13.446;2023-04-03T15:04:54;6.60;92.30
11991;DHT22;6055;52.522;13.446;2023-04-03T15:07:21;6.50;92.30
11991;DHT22;6055;52.522;13.446;2023-04-03T15:09:46;6.50;92.70
11991;DHT22;6055;52.522;13.446;2023-04-03T15:12:12;6.60;92.90
11991;DHT22;6055;52.522;13.446;2023-04-03T15:14:38;6.50;92.90
11991;DHT22;6055;52.522;13.446;2023-04-03T15:17:13;6.40;93.50
11991;DHT22;6055;52.522;13.446;2023-04-03T15:19:40;6.40;93.30
11991;DHT22;6055;52.522;13.446;2023-04-03T15:22:05;6.30;93.30
11991;DHT22;6055;52.522;13.446;2023-04-03T15:24:31;6.30;93.60
11991;DHT22;6055;52.522;13.446;2023-04-03T15:26:57;6.20;94.00
11991;DHT22;6055;52.522;13.446;2023-04-03T15:29:22;6.20;94.00
11991;DHT22;6055;52.522;13.446;2023-04-03T15:31:48;6.10;94.40
11991;DHT22;6055;52.522;13.446;2023-04-03T15:34:15;5.90;94.70
11991;DHT22;6055;52.522;13.446;2023-04-03T15:36:41;5.80;95.10
11991;DHT22;6055;52.522;13.446;2023-04-03T15:39:06;5.90;95.00
11991;DHT22;6055;52.522;13.446;2023-04-03T15:41:32;5.90;94.90
11991;DHT22;6055;52.522;13.446;2023-04-03T15:43:57;5.90;94.90
11991;DHT22;6055;52.522;13.446;2023-04-03T15:46:23;5.90;94.90
11991;DHT22;6055;52.522;13.446;2023-04-03T15:48:48;5.90;94.90
11991;DHT22;6055;52.522;13.446;2023-04-03T15:51:14;5.90;94.60
11991;DHT22;6055;52.522;13.446;2023-04-03T15:53:40;5.90;94.60
11991;DHT22;6055;52.522;13.446;2023-04-03T15:56:05;5.80;94.50
11991;DHT22;6055;52.522;13.446;2023-04-03T15:58:33;5.80;94.60
11991;DHT22;6055;52.522;13.446;2023-04-03T16:00:58;5.80;94.60
11991;DHT22;6055;52.522;13.446;2023-04-03T16:03:24;5.70;94.50
11991;DHT22;6055;52.522;13.446;2023-04-03T16:05:50;5.60;94.50
11991;DHT22;6055;52.522;13.446;2023-04-03T16:08:16;5.60;94.50
11991;DHT22;6055;52.522;13.446;2023-04-03T16:10:43;5.90;94.90
11991;DHT22;6055;52.522;13.446;2023-04-03T16:13:10;6.30;94.30
11991;DHT22;6055;52.522;13.446;2023-04-03T16:15:36;6.70;93.90
11991;DHT22;6055;52.522;13.446;2023-04-03T16:18:01;7.10;93.40
11991;DHT22;6055;52.522;13.446;2023-04-03T16:20:27;7.50;92.70
11991;DHT22;6055;52.522;13.446;2023-04-03T16:22:53;7.70;92.10
11991;DHT22;6055;52.522;13.446;2023-04-03T16:25:19;7.90;91.90
11991;DHT22;6055;52.522;13.446;2023-04-03T16:27:45;8.00;91.70
11991;DHT22;6055;52.522;13.446;2023-04-03T16:30:11;8.00;91.60
11991;DHT22;6055;52.522;13.446;2023-04-03T16:32:38;7.70;91.60
11991;DHT22;6055;52.522;13.446;2023-04-03T16:35:04;7.50;91.90
11991;DHT22;6055;52.522;13.446;2023-04-03T16:37:30;7.30;91.90
11991;DHT22;6055;52.522;13.446;2023-04-03T16:39:55;7.10;92.50
11991;DHT22;6055;52.522;13.446;2023-04-03T16:42:23;6.80;92.80
11991;DHT22;6055;52.522;13.446;2023-04-03T16:44:49;6.60;93.40
11991;DHT22;6055;52.522;13.446;2023-04-03T16:47:14;6.50;93.70
11991;DHT22;6055;52.522;13.446;2023-04-03T16:49:44;6.30;94.00
11991;DHT22;6055;52.522;13.446;2023-04-03T16:52:10;6.20;94.40
11991;DHT22;6055;52.522;13.446;2023-04-03T16:54:35;6.10;94.60
11991;DHT22;6055;52.522;13.446;2023-04-03T16:57:01;6.10;94.80
11991;DHT22;6055;52.522;13.446;2023-04-03T16:59:26;6.00;94.90
11991;DHT22;6055;52.522;13.446;2023-04-03T17:01:52;5.90;95.30
11991;DHT22;6055;52.522;13.446;2023-04-03T17:04:17;5.90;95.40
11991;DHT22;6055;52.522;13.446;2023-04-03T17:06:43;5.80;95.80
11991;DHT22;6055;52.522;13.446;2023-04-03T17:09:09;5.70;95.80
11991;DHT22;6055;52.522;13.446;2023-04-03T17:11:34;5.70;95.60
11991;DHT22;6055;52.522;13.446;2023-04-03T17:14:00;5.60;96.00
11991;DHT22;6055;52.522;13.446;2023-04-03T17:16:26;5.60;96.20
11991;DHT22;6055;52.522;13.446;2023-04-03T17:18:53;5.60;96.10
11991;DHT22;6055;52.522;13.446;2023-04-03T17:21:19;5.60;96.20
11991;DHT22;6055;52.522;13.446;2023-04-03T17:23:49;5.60;96.10
11991;DHT22;6055;52.522;13.446;2023-04-03T17:26:16;5.50;96.30
11991;DHT22;6055;52.522;13.446;2023-04-03T17:28:41;5.50;96.40
11991;DHT22;6055;52.522;13.446;2023-04-03T17:31:07;5.40;96.80